Lanse, Pennsylvania
Current Conditions -  °F | °C
As of 2:54 AM on Friday 21 Nov 2014 (Local Time) from KFIG Reporting Station
Overcast Overcast  
Wind Chill:   Ceiling: 2200
Heat Index: 19°   Visibility: 10mi
Dew Point: 10°   Wind: 13mph
Humidity: 68%   Direction: 270°W
Pressure: 30.09"   Gusts: NA
Location:  40.97°N, 78.13°W
Report Text: KFIG 210754Z AUTO 27011KT 10SM OVC022 M07/M12 A3009 RMK AO2 SNE06 SLP213 P0000 T10721122
Loading
Personal Weather Stations






























Interactive Weather Map New forecast layout! Learn more

10-Day Weather Forecast

Advertisements
Track Severe Weather on mobile